Archiv-/Tagesdaten

--Timestamp---	Temp	Chill	HIndex	Humid	Dewpt	 Wind 	HiWind	WindDir	Rain 	Barom	Solar	 ET  	 UV 
--------------	----	-----	------	-----	-----	------	------	-------	-----	-----	-----	-----	----
20100829 00:00	9.8	9.8	9.8	85	7.4	5	10	248	0.0	1019.0	0	0.025	0.0
20100829 00:05	9.8	9.8	9.8	85	7.4	5	10	248	0.0	1018.9	0	0.000	0.0
20100829 00:10	9.9	9.3	9.9	86	7.7	6	11	248	0.0	1018.9	0	0.000	0.0
20100829 00:15	10.0	10.0	10.0	86	7.8	3	8	248	0.0	1018.9	0	0.000	0.0
20100829 00:20	9.9	9.9	9.9	85	7.5	2	6	248	0.0	1018.9	0	0.000	0.0
20100829 00:25	9.7	9.7	9.7	86	7.4	2	6	248	0.0	1018.8	0	0.000	0.0
20100829 00:30	9.6	9.6	9.6	86	7.3	0	3	248	0.0	1019.0	0	0.000	0.0
20100829 00:35	9.4	9.4	9.4	87	7.3	0	5	248	0.0	1019.0	0	0.000	0.0
20100829 00:40	9.3	9.3	9.3	88	7.4	2	5	248	0.0	1019.0	0	0.000	0.0
20100829 00:45	9.2	9.2	9.2	88	7.3	2	6	248	0.0	1019.0	0	0.000	0.0
20100829 00:50	9.2	9.2	9.2	88	7.3	2	5	248	0.0	1019.0	0	0.000	0.0
20100829 00:55	9.2	8.4	9.2	89	7.4	6	11	270	0.0	1018.9	0	0.000	0.0
20100829 01:00	9.4	8.3	9.4	90	7.8	8	18	270	0.0	1018.9	0	0.000	0.0
20100829 01:05	9.6	8.6	9.6	89	7.9	8	16	270	0.0	1018.8	0	0.000	0.0
20100829 01:10	9.9	9.2	9.9	89	8.2	6	14	270	0.0	1018.6	0	0.000	0.0
20100829 01:15	10.1	10.1	10.1	88	8.2	6	10	248	0.0	1018.6	0	0.000	0.0
20100829 01:20	10.2	10.2	10.2	87	8.1	6	11	270	0.0	1018.6	0	0.000	0.0
20100829 01:25	10.2	10.2	10.2	87	8.1	6	10	270	0.0	1018.6	0	0.000	0.0
20100829 01:30	10.1	10.1	10.1	86	7.9	6	11	270	0.0	1018.6	0	0.000	0.0
20100829 01:35	10.1	10.1	10.1	86	7.8	6	13	270	0.0	1018.5	0	0.000	0.0
20100829 01:40	10.0	10.0	10.0	86	7.8	6	11	270	0.0	1018.4	0	0.000	0.0
20100829 01:45	9.9	9.3	9.9	86	7.7	6	8	270	0.0	1018.4	0	0.000	0.0
20100829 01:50	9.9	9.9	9.9	87	7.8	5	8	270	0.0	1018.3	0	0.000	0.0
20100829 01:55	9.8	9.8	9.8	87	7.8	5	6	270	0.0	1018.4	0	0.000	0.0
20100829 02:00	9.8	9.8	9.8	87	7.7	5	6	270	0.0	1018.4	0	0.025	0.0
20100829 02:05	9.8	9.8	9.8	87	7.7	2	6	270	0.0	1018.5	0	0.000	0.0
20100829 02:10	9.8	9.8	9.8	88	7.9	5	10	292	0.0	1018.5	0	0.000	0.0
20100829 02:15	9.8	9.8	9.8	88	7.9	5	10	292	0.2	1018.4	0	0.000	0.0
20100829 02:20	9.9	9.9	9.9	89	8.2	5	8	292	0.0	1018.3	0	0.000	0.0
20100829 02:25	10.0	10.0	10.0	89	8.3	3	6	292	0.0	1018.3	0	0.000	0.0
20100829 02:30	10.0	10.0	10.0	89	8.3	3	6	292	0.0	1018.3	0	0.000	0.0
20100829 02:35	10.0	10.0	10.0	89	8.3	3	8	292	0.0	1018.2	0	0.000	0.0
20100829 02:40	10.0	10.0	10.0	89	8.3	5	8	248	0.0	1018.2	0	0.000	0.0
20100829 02:45	10.1	10.1	10.1	89	8.3	5	8	248	0.0	1018.2	0	0.000	0.0
20100829 02:50	10.1	10.1	10.1	89	8.4	3	10	248	0.0	1018.3	0	0.000	0.0
20100829 02:55	10.2	10.2	10.2	90	8.6	5	10	292	0.0	1018.2	0	0.000	0.0
20100829 03:00	10.2	10.2	10.2	89	8.5	5	8	270	0.0	1018.3	0	0.000	0.0
20100829 03:05	10.2	10.2	10.2	89	8.5	5	8	292	0.0	1018.1	0	0.000	0.0
20100829 03:10	10.3	10.3	10.3	89	8.5	5	11	270	0.0	1018.0	0	0.000	0.0
20100829 03:15	10.3	10.3	10.3	89	8.5	6	14	270	0.0	1018.0	0	0.000	0.0
20100829 03:20	10.3	10.3	10.3	89	8.5	5	10	248	0.0	1018.0	0	0.000	0.0
20100829 03:25	10.3	10.3	10.3	89	8.5	6	11	270	0.0	1017.8	0	0.000	0.0
20100829 03:30	10.3	10.3	10.3	89	8.6	6	16	270	0.0	1017.9	0	0.000	0.0
20100829 03:35	10.3	10.3	10.3	89	8.6	8	16	270	0.0	1017.9	0	0.000	0.0
20100829 03:40	10.3	10.3	10.3	88	8.4	6	10	270	0.0	1018.0	0	0.000	0.0
20100829 03:45	10.3	10.3	10.3	88	8.4	6	11	248	0.0	1018.0	0	0.000	0.0
20100829 03:50	10.4	10.4	10.4	88	8.5	5	10	270	0.0	1018.0	0	0.000	0.0
20100829 03:55	10.4	10.4	10.4	88	8.5	6	11	248	0.0	1018.0	0	0.000	0.0
20100829 04:00	10.4	10.4	10.4	88	8.5	5	10	270	0.0	1018.1	0	0.025	0.0
20100829 04:05	10.4	10.4	10.4	88	8.5	6	14	248	0.0	1018.0	0	0.000	0.0
20100829 04:10	10.3	10.3	10.3	88	8.4	6	13	248	0.0	1018.1	0	0.000	0.0
20100829 04:15	10.3	10.3	10.3	88	8.4	8	14	248	0.0	1018.1	0	0.000	0.0
20100829 04:20	10.3	10.3	10.3	88	8.4	6	14	270	0.0	1018.0	0	0.000	0.0
20100829 04:25	10.2	10.2	10.2	88	8.3	8	14	270	0.0	1018.1	0	0.000	0.0
20100829 04:30	10.3	10.3	10.3	88	8.4	6	11	248	0.0	1018.0	0	0.000	0.0
20100829 04:35	10.3	10.3	10.3	88	8.4	6	11	270	0.0	1018.0	0	0.000	0.0
20100829 04:40	10.4	10.4	10.4	88	8.5	8	16	270	0.0	1018.0	0	0.000	0.0
20100829 04:45	10.4	10.4	10.4	88	8.5	8	18	248	0.0	1017.8	0	0.000	0.0
20100829 04:50	10.5	10.5	10.5	88	8.6	8	18	270	0.0	1017.8	0	0.000	0.0
20100829 04:55	10.6	10.6	10.6	87	8.5	8	18	248	0.0	1017.8	0	0.000	0.0
20100829 05:00	10.6	10.6	10.6	87	8.5	6	13	248	0.0	1017.7	0	0.025	0.0
20100829 05:05	10.6	10.6	10.6	87	8.5	10	18	248	0.0	1017.5	0	0.000	0.0
20100829 05:10	10.6	10.6	10.6	86	8.3	11	16	248	0.0	1017.5	0	0.000	0.0
20100829 05:15	10.5	10.5	10.5	85	8.1	8	16	248	0.0	1017.5	0	0.000	0.0
20100829 05:20	10.4	10.4	10.4	85	8.0	8	14	248	0.0	1017.5	0	0.000	0.0
20100829 05:25	10.4	10.4	10.4	85	8.0	6	13	248	0.0	1017.4	0	0.000	0.0
20100829 05:30	10.4	10.4	10.4	85	8.0	8	16	248	0.0	1017.5	0	0.000	0.0
20100829 05:35	10.3	10.3	10.3	84	7.7	8	19	248	0.0	1017.4	0	0.000	0.0
20100829 05:40	10.3	10.3	10.3	84	7.7	6	14	225	0.0	1017.4	0	0.000	0.0
20100829 05:45	10.3	10.3	10.3	84	7.7	8	16	225	0.0	1017.4	0	0.000	0.0
20100829 05:50	10.2	10.2	10.2	84	7.6	10	19	225	0.0	1017.5	0	0.000	0.0
20100829 05:55	10.1	10.1	10.1	84	7.5	10	19	248	0.0	1017.5	0	0.000	0.0
20100829 06:00	9.9	8.6	9.9	84	7.4	10	16	248	0.0	1017.5	0	0.025	0.0
20100829 06:05	9.8	8.8	9.8	84	7.3	8	16	248	0.0	1017.6	0	0.000	0.0
20100829 06:10	9.8	8.7	9.8	84	7.2	8	16	225	0.0	1017.6	0	0.000	0.0
20100829 06:15	9.7	8.6	9.7	84	7.1	8	14	248	0.0	1017.7	0	0.000	0.0
20100829 06:20	9.6	8.2	9.6	84	7.0	10	14	248	0.0	1017.8	0	0.000	0.0
20100829 06:25	9.6	8.2	9.6	84	7.0	10	18	248	0.0	1017.8	0	0.000	0.0
20100829 06:30	9.6	8.2	9.6	84	7.0	10	18	248	0.0	1017.9	0	0.000	0.0
20100829 06:35	9.6	8.5	9.6	84	7.0	8	11	248	0.0	1017.8	3	0.000	0.0
20100829 06:40	9.6	8.5	9.6	84	7.0	8	16	225	0.0	1017.8	8	0.000	0.0
20100829 06:45	9.6	8.9	9.6	85	7.2	6	11	248	0.0	1017.9	14	0.000	0.0
20100829 06:50	9.6	8.9	9.6	85	7.2	6	16	225	0.0	1017.9	21	0.000	0.0
20100829 06:55	9.6	8.9	9.6	85	7.2	6	11	248	0.0	1017.9	22	0.000	0.0
20100829 07:00	9.6	8.5	9.6	85	7.2	8	14	248	0.0	1017.9	22	0.025	0.0
20100829 07:05	9.6	8.5	9.6	85	7.2	8	13	248	0.0	1018.0	21	0.000	0.0
20100829 07:10	9.6	8.5	9.6	85	7.2	8	16	248	0.0	1018.0	23	0.000	0.0
20100829 07:15	9.6	8.6	9.6	85	7.2	8	14	225	0.0	1018.0	23	0.000	0.0
20100829 07:20	9.7	9.0	9.7	85	7.3	6	14	270	0.0	1017.9	27	0.000	0.0
20100829 07:25	9.7	8.7	9.7	85	7.3	8	14	248	0.0	1018.0	31	0.000	0.0
20100829 07:30	9.8	9.2	9.8	85	7.4	6	16	270	0.0	1018.0	41	0.000	0.0
20100829 07:35	9.9	8.9	9.9	85	7.5	8	16	270	0.0	1018.0	57	0.000	0.0
20100829 07:40	10.1	10.1	10.1	85	7.6	8	16	248	0.0	1018.0	78	0.000	0.0
20100829 07:45	10.3	10.3	10.3	84	7.7	8	16	248	0.0	1017.8	99	0.000	0.0
20100829 07:50	10.6	10.6	10.6	84	8.0	8	14	248	0.0	1017.8	191	0.000	0.0
20100829 07:55	10.8	10.8	10.8	83	8.0	10	21	270	0.0	1017.7	105	0.000	0.0
20100829 08:00	11.0	11.0	11.0	82	8.0	11	19	270	0.0	1017.8	151	0.051	0.0
20100829 08:05	11.1	11.1	11.1	82	8.2	11	21	248	0.0	1017.8	100	0.000	0.0
20100829 08:10	11.2	11.2	11.2	82	8.3	10	19	270	0.0	1017.8	110	0.000	0.0
20100829 08:15	11.3	11.3	11.3	82	8.3	10	23	248	0.0	1017.7	138	0.000	0.3
20100829 08:20	11.3	11.3	11.3	82	8.4	10	23	270	0.0	1017.7	150	0.000	0.5
20100829 08:25	11.4	11.4	11.4	81	8.2	13	24	270	0.0	1017.7	107	0.000	0.6
20100829 08:30	11.3	11.3	11.3	81	8.2	11	23	270	0.0	1017.7	68	0.000	0.3
20100829 08:35	11.4	11.4	11.4	82	8.4	11	21	270	0.0	1017.6	277	0.000	0.7
20100829 08:40	11.7	11.7	11.7	81	8.5	13	26	270	0.0	1017.7	297	0.000	0.8
20100829 08:45	11.8	11.8	11.8	79	8.3	14	27	270	0.0	1017.6	313	0.000	0.9
20100829 08:50	12.1	12.1	12.1	79	8.5	13	24	270	0.0	1017.6	329	0.000	1.0
20100829 08:55	12.3	12.3	12.3	78	8.6	13	27	270	0.0	1017.6	318	0.000	1.0
20100829 09:00	12.3	12.3	12.3	77	8.4	16	29	270	0.0	1017.5	293	0.127	1.1
20100829 09:05	12.3	12.3	12.3	77	8.4	13	23	270	0.0	1017.6	56	0.000	0.3
20100829 09:10	12.4	12.4	12.4	77	8.5	13	21	270	0.0	1017.6	51	0.000	0.0
20100829 09:15	12.5	12.5	12.5	76	8.4	14	26	270	0.0	1017.6	50	0.000	0.0
20100829 09:20	12.6	12.6	12.6	76	8.5	13	21	292	0.0	1017.6	65	0.000	0.6
20100829 09:25	12.7	12.7	12.7	74	8.2	19	31	292	0.0	1017.6	120	0.000	1.2
20100829 09:30	12.9	12.9	12.9	76	8.8	13	24	270	0.0	1017.7	180	0.000	1.1
20100829 09:35	12.9	12.9	12.9	74	8.4	19	29	270	0.0	1017.8	131	0.000	0.9
20100829 09:40	12.8	12.8	12.8	75	8.5	11	21	292	0.0	1017.6	142	0.000	1.1
20100829 09:45	12.8	12.8	12.8	76	8.7	8	19	292	0.0	1017.6	118	0.000	1.3
20100829 09:50	12.9	12.9	12.9	75	8.6	11	21	270	0.0	1017.6	170	0.000	1.5
20100829 09:55	13.1	13.1	13.1	74	8.6	14	26	292	0.0	1017.4	210	0.000	1.4
20100829 10:00	13.3	13.3	13.3	72	8.3	13	24	270	0.0	1017.5	116	0.102	1.3
20100829 10:05	13.3	13.3	13.3	73	8.6	11	21	270	0.0	1017.6	118	0.000	1.7
20100829 10:10	13.5	13.5	13.5	71	8.3	16	27	270	0.0	1017.6	169	0.000	1.8
20100829 10:15	13.6	13.6	13.6	71	8.4	14	27	292	0.0	1017.6	139	0.000	1.5
20100829 10:20	13.5	13.5	13.5	69	7.9	16	29	270	0.0	1017.6	176	0.000	2.0
20100829 10:25	13.5	13.5	13.5	68	7.7	18	27	292	0.0	1017.5	172	0.000	1.9
20100829 10:30	13.7	13.7	13.7	71	8.5	13	24	270	0.0	1017.5	224	0.000	2.2
20100829 10:35	14.0	14.0	14.0	68	8.2	13	24	292	0.0	1017.5	233	0.000	2.2
20100829 10:40	14.2	14.2	14.2	67	8.1	14	23	292	0.0	1017.3	174	0.000	1.9
20100829 10:45	14.1	14.1	14.1	66	7.8	13	23	270	0.0	1017.5	182	0.000	1.9
20100829 10:50	14.1	14.1	14.1	66	7.9	11	23	292	0.0	1017.4	302	0.000	2.3
20100829 10:55	14.1	14.1	14.1	64	7.4	14	23	270	0.0	1017.4	234	0.000	2.0
20100829 11:00	14.1	14.1	14.1	64	7.3	11	26	270	0.0	1017.4	195	0.152	2.0
20100829 11:05	14.0	14.0	14.0	63	7.1	16	24	270	0.0	1017.3	200	0.000	2.1
20100829 11:10	13.9	13.9	13.9	65	7.5	13	24	270	0.0	1017.3	209	0.000	2.3
20100829 11:15	14.1	14.1	14.1	65	7.6	16	26	270	0.0	1017.3	704	0.000	3.8
20100829 11:20	14.4	14.4	14.4	65	7.9	14	26	270	0.0	1017.1	276	0.000	3.0
20100829 11:25	14.4	14.4	14.4	63	7.4	13	26	270	0.0	1017.1	157	0.000	2.6
20100829 11:30	14.4	14.4	14.4	63	7.4	14	23	270	0.0	1017.0	653	0.000	4.6
20100829 11:35	14.8	14.8	14.8	63	7.8	13	27	248	0.0	1016.9	807	0.000	5.1
20100829 11:40	15.2	15.2	15.2	62	7.9	10	23	248	0.0	1016.8	856	0.000	5.3
20100829 11:45	15.6	15.6	15.6	60	7.9	16	26	248	0.0	1016.7	849	0.000	5.1
20100829 11:50	15.8	15.8	15.8	59	7.8	18	32	248	0.0	1016.8	854	0.000	5.3
20100829 11:55	15.8	15.8	15.8	58	7.5	18	31	270	0.0	1016.7	846	0.000	5.4
20100829 12:00	15.9	15.9	15.9	60	8.1	18	34	270	0.0	1016.8	620	0.356	5.2
20100829 12:05	15.9	15.9	15.9	57	7.4	18	29	248	0.0	1016.6	656	0.000	5.6
20100829 12:10	15.8	15.8	15.8	58	7.6	18	27	270	0.0	1016.6	611	0.000	4.4
20100829 12:15	15.9	15.9	15.9	59	7.9	19	34	270	0.0	1016.5	566	0.000	5.1
20100829 12:20	16.1	16.1	16.1	56	7.3	14	27	248	0.0	1016.5	390	0.000	3.8
20100829 12:25	15.8	15.8	15.8	57	7.3	18	35	270	0.0	1016.6	128	0.000	1.3
20100829 12:30	15.0	15.0	15.0	66	8.7	24	53	292	0.0	1017.0	69	0.000	0.6
20100829 12:35	13.8	13.8	13.8	73	9.0	16	29	292	0.4	1017.2	55	0.000	0.3
20100829 12:40	12.8	12.8	12.8	76	8.7	10	21	292	0.2	1017.2	66	0.000	0.7
20100829 12:45	12.2	12.2	12.2	79	8.6	3	8	292	0.0	1017.2	99	0.000	1.4
20100829 12:50	11.9	11.9	11.9	81	8.8	2	5	270	0.0	1017.1	177	0.000	2.5
20100829 12:55	11.8	11.8	11.8	81	8.7	2	6	270	0.0	1017.1	193	0.000	2.8
20100829 13:00	12.0	12.0	12.0	81	8.8	2	6	270	0.0	1017.0	726	0.203	5.0
20100829 13:05	12.7	12.7	12.7	82	9.7	5	11	225	0.0	1016.7	699	0.000	5.5
20100829 13:10	13.2	13.2	13.2	78	9.4	8	16	225	0.0	1016.6	723	0.000	5.7
20100829 13:15	13.7	13.7	13.7	75	9.4	10	19	270	0.0	1016.5	743	0.000	5.7
20100829 13:20	14.0	14.0	14.0	74	9.4	10	23	270	0.0	1016.4	751	0.000	5.5
20100829 13:25	14.8	14.8	14.8	72	9.8	13	23	270	0.0	1016.3	794	0.000	5.2
20100829 13:30	15.0	15.0	15.0	66	8.7	16	24	270	0.0	1016.3	155	0.000	3.1
20100829 13:35	14.8	14.8	14.8	66	8.5	13	21	270	0.0	1016.3	289	0.000	3.1
20100829 13:40	14.8	14.8	14.8	66	8.5	13	21	270	0.0	1016.2	147	0.000	2.7
20100829 13:45	14.7	14.7	14.7	63	7.7	14	26	270	0.0	1016.1	150	0.000	2.8
20100829 13:50	14.7	14.7	14.7	63	7.7	11	21	270	0.0	1016.1	168	0.000	2.9
20100829 13:55	14.8	14.8	14.8	61	7.4	19	29	270	0.0	1016.1	145	0.000	2.1
20100829 14:00	14.8	14.8	14.8	63	7.9	13	23	270	0.0	1016.1	211	0.254	2.6
20100829 14:05	15.0	15.0	15.0	62	7.8	16	29	270	0.0	1016.1	864	0.000	5.1
20100829 14:10	15.6	15.6	15.6	61	8.1	16	29	292	0.0	1015.9	673	0.000	4.7
20100829 14:15	15.8	15.8	15.8	57	7.3	14	29	270	0.0	1015.8	450	0.000	4.4
20100829 14:20	16.1	16.1	16.1	55	7.1	19	34	270	0.0	1015.8	727	0.000	5.1
20100829 14:25	16.3	16.3	16.3	54	7.0	19	31	270	0.0	1015.6	752	0.000	5.4
20100829 14:30	16.6	16.6	16.6	53	7.0	19	32	292	0.0	1015.3	790	0.000	5.6
20100829 14:35	16.9	16.9	16.9	51	6.7	19	37	270	0.0	1015.4	819	0.000	5.4
20100829 14:40	17.1	17.1	17.1	51	6.8	19	31	270	0.0	1015.4	770	0.000	5.1
20100829 14:45	17.2	17.2	17.2	51	7.0	18	29	270	0.0	1015.3	723	0.000	5.1
20100829 14:50	17.3	17.3	17.3	49	6.5	19	35	292	0.0	1015.3	647	0.000	4.4
20100829 14:55	17.1	17.1	17.1	51	6.8	16	29	270	0.0	1015.3	429	0.000	3.6
20100829 15:00	16.8	16.8	16.8	50	6.3	18	35	270	0.0	1015.2	247	0.432	2.9
20100829 15:05	16.3	16.3	16.3	52	6.4	18	34	270	0.0	1015.2	272	0.000	3.0
20100829 15:10	16.2	16.2	16.2	54	6.9	16	26	270	0.0	1015.1	508	0.000	4.0
20100829 15:15	16.7	16.7	16.7	54	7.4	16	26	292	0.0	1015.0	704	0.000	4.0
20100829 15:20	16.8	16.8	16.8	49	6.1	19	32	270	0.0	1015.0	292	0.000	2.7
20100829 15:25	16.7	16.7	16.7	50	6.2	19	29	270	0.0	1015.0	559	0.000	3.2
20100829 15:30	16.7	16.7	16.7	51	6.5	16	37	292	0.0	1015.0	266	0.000	2.3
20100829 15:35	16.3	16.3	16.3	53	6.7	19	27	292	0.0	1014.9	199	0.000	1.8
20100829 15:40	16.1	16.1	16.1	54	6.8	14	21	270	0.0	1014.8	178	0.000	1.5
20100829 15:45	15.9	15.9	15.9	56	7.2	14	24	292	0.0	1014.8	169	0.000	1.4
20100829 15:50	15.9	15.9	15.9	57	7.4	10	23	292	0.0	1014.7	208	0.000	1.7
20100829 15:55	16.3	16.3	16.3	59	8.2	8	16	292	0.0	1014.8	480	0.000	2.8
20100829 16:00	16.6	16.6	16.6	56	7.8	14	27	292	0.0	1014.7	350	0.279	2.4
20100829 16:05	16.7	16.7	16.7	55	7.6	13	24	292	0.0	1014.7	317	0.000	2.4
20100829 16:10	16.7	16.7	16.7	55	7.6	13	23	270	0.0	1014.7	505	0.000	2.6
20100829 16:15	16.9	16.9	16.9	56	8.1	11	18	270	0.0	1014.6	345	0.000	2.1
20100829 16:20	17.0	17.0	17.0	54	7.6	13	26	270	0.0	1014.5	298	0.000	1.8
20100829 16:25	16.9	16.9	16.9	52	7.0	16	31	270	0.0	1014.4	298	0.000	1.7
20100829 16:30	16.6	16.6	16.6	52	6.7	21	32	270	0.0	1014.6	287	0.000	1.8
20100829 16:35	16.4	16.4	16.4	52	6.6	19	27	270	0.0	1014.6	278	0.000	1.8
20100829 16:40	16.6	16.6	16.6	55	7.5	13	23	270	0.0	1014.5	472	0.000	2.1
20100829 16:45	16.8	16.8	16.8	53	7.1	14	31	270	0.0	1014.4	309	0.000	1.8
20100829 16:50	16.6	16.6	16.6	54	7.2	18	29	270	0.0	1014.4	270	0.000	1.6
20100829 16:55	16.4	16.4	16.4	55	7.4	13	23	270	0.0	1014.4	278	0.000	1.5
20100829 17:00	16.3	16.3	16.3	55	7.3	13	24	270	0.0	1014.4	251	0.254	1.4
20100829 17:05	16.3	16.3	16.3	55	7.3	13	24	270	0.0	1014.5	262	0.000	1.4
20100829 17:10	16.3	16.3	16.3	54	7.0	14	26	270	0.0	1014.4	309	0.000	1.4
20100829 17:15	16.2	16.2	16.2	53	6.6	19	29	270	0.0	1014.4	220	0.000	1.3
20100829 17:20	16.1	16.1	16.1	55	7.1	14	23	248	0.0	1014.4	190	0.000	1.1
20100829 17:25	16.1	16.1	16.1	55	7.1	10	14	292	0.0	1014.4	-100000	0.000	1.2
20100829 17:30	16.3	16.3	16.3	53	6.7	16	27	292	0.0	1014.3	279	0.000	1.2
20100829 17:35	16.3	16.3	16.3	54	7.0	16	26	270	0.0	1014.3	191	0.000	1.0
20100829 17:40	16.2	16.2	16.2	54	6.8	13	24	292	0.0	1014.3	171	0.000	0.9
20100829 17:45	16.1	16.1	16.1	55	7.0	11	19	270	0.0	1014.2	196	0.000	0.8
20100829 17:50	15.9	15.9	15.9	55	6.9	13	24	292	0.0	1014.3	157	0.000	0.8
20100829 17:55	15.8	15.8	15.8	55	6.8	13	23	292	0.0	1014.2	167	0.000	0.7
20100829 18:00	15.9	15.9	15.9	55	6.9	14	23	292	0.0	1014.1	340	0.203	0.8
20100829 18:05	16.2	16.2	16.2	55	7.2	16	26	292	0.0	1014.1	277	0.000	0.7
20100829 18:10	16.3	16.3	16.3	54	7.0	11	19	292	0.0	1014.0	168	0.000	0.6
20100829 18:15	16.3	16.3	16.3	54	7.0	11	23	270	0.0	1014.0	220	0.000	0.6
20100829 18:20	16.4	16.4	16.4	54	7.1	10	26	292	0.0	1013.9	213	0.000	0.5
20100829 18:25	16.5	16.5	16.5	54	7.2	8	18	292	0.0	1013.8	152	0.000	0.3
20100829 18:30	16.3	16.3	16.3	55	7.2	8	11	292	0.0	1013.8	93	0.000	0.0
20100829 18:35	16.0	16.0	16.0	56	7.2	10	16	292	0.0	1013.7	85	0.000	0.0
20100829 18:40	15.8	15.8	15.8	58	7.6	6	10	292	0.0	1013.6	114	0.000	0.0
20100829 18:45	15.7	15.7	15.7	58	7.5	6	14	292	0.0	1013.8	66	0.000	0.0
20100829 18:50	15.5	15.5	15.5	56	6.8	11	23	292	0.0	1013.8	44	0.000	0.0
20100829 18:55	15.3	15.3	15.3	57	6.9	11	24	270	0.0	1013.7	48	0.000	0.0
20100829 19:00	15.1	15.1	15.1	59	7.2	8	21	270	0.0	1013.6	56	0.127	0.0
20100829 19:05	15.0	15.0	15.0	59	7.0	13	26	270	0.0	1013.5	49	0.000	0.0
20100829 19:10	15.0	15.0	15.0	59	7.0	10	18	292	0.0	1013.5	36	0.000	0.0
20100829 19:15	14.8	14.8	14.8	59	6.8	10	16	292	0.0	1013.5	24	0.000	0.0
20100829 19:20	14.6	14.6	14.6	59	6.7	10	23	270	0.0	1013.5	19	0.000	0.0
20100829 19:25	14.4	14.4	14.4	61	7.0	8	16	292	0.0	1013.4	23	0.000	0.0
20100829 19:30	14.3	14.3	14.3	61	6.9	6	11	292	0.0	1013.4	23	0.000	0.0
20100829 19:35	14.2	14.2	14.2	62	7.0	6	11	292	0.0	1013.2	20	0.000	0.0
20100829 19:40	14.1	14.1	14.1	62	6.9	6	11	292	0.0	1013.3	14	0.000	0.0
20100829 19:45	13.9	13.9	13.9	63	7.0	6	16	292	0.0	1013.2	8	0.000	0.0
20100829 19:50	13.8	13.8	13.8	64	7.1	5	8	292	0.0	1013.2	5	0.000	0.0
20100829 19:55	13.7	13.7	13.7	65	7.3	5	6	292	0.0	1013.1	2	0.000	0.0
20100829 20:00	13.6	13.6	13.6	65	7.2	3	6	292	0.0	1013.1	0	0.051	0.0
20100829 20:05	13.5	13.5	13.5	65	7.0	2	5	292	0.0	1012.9	0	0.000	0.0
20100829 20:10	13.4	13.4	13.4	66	7.2	2	5	292	0.0	1012.9	0	0.000	0.0
20100829 20:15	13.3	13.3	13.3	68	7.5	0	2	292	0.0	1012.8	0	0.000	0.0
20100829 20:20	13.3	13.3	13.3	68	7.5	0	5	292	0.0	1012.8	0	0.000	0.0
20100829 20:25	13.2	13.2	13.2	67	7.2	2	5	292	0.0	1012.9	0	0.000	0.0
20100829 20:30	13.2	13.2	13.2	68	7.4	2	5	292	0.0	1012.9	0	0.000	0.0
20100829 20:35	13.2	13.2	13.2	68	7.4	2	5	292	0.0	1013.0	0	0.000	0.0
20100829 20:40	13.3	13.3	13.3	68	7.5	2	5	292	0.0	1013.0	0	0.000	0.0
20100829 20:45	13.2	13.2	13.2	68	7.4	0	5	292	0.0	1012.9	0	0.000	0.0
20100829 20:50	13.2	13.2	13.2	69	7.7	3	8	270	0.0	1012.9	0	0.000	0.0
20100829 20:55	13.2	13.2	13.2	70	7.8	2	5	270	0.0	1012.9	0	0.000	0.0
20100829 21:00	13.1	13.1	13.1	70	7.7	3	6	270	0.0	1012.9	0	0.000	0.0
20100829 21:05	12.9	12.9	12.9	71	7.8	5	8	270	0.0	1012.9	0	0.000	0.0
20100829 21:10	12.8	12.8	12.8	71	7.7	6	11	225	0.0	1012.9	0	0.000	0.0
20100829 21:15	12.8	12.8	12.8	71	7.7	5	11	202	0.0	1012.9	0	0.000	0.0
20100829 21:20	12.8	12.8	12.8	72	7.9	5	10	202	0.0	1012.8	0	0.000	0.0
20100829 21:25	12.8	12.8	12.8	72	7.9	5	10	225	0.0	1012.7	0	0.000	0.0
20100829 21:30	12.7	12.7	12.7	73	8.0	3	10	202	0.0	1012.7	0	0.000	0.0
20100829 21:35	12.6	12.6	12.6	74	8.1	6	10	202	0.0	1012.7	0	0.000	0.0
20100829 21:40	12.5	12.5	12.5	75	8.2	5	10	202	0.0	1012.7	0	0.000	0.0
20100829 21:45	12.4	12.4	12.4	75	8.1	6	10	202	0.0	1012.6	0	0.000	0.0
20100829 21:50	12.4	12.4	12.4	75	8.1	6	10	202	0.0	1012.5	0	0.000	0.0
20100829 21:55	12.4	12.4	12.4	75	8.1	6	10	225	0.0	1012.6	0	0.000	0.0
20100829 22:00	12.4	12.4	12.4	75	8.1	6	10	225	0.0	1012.5	0	0.025	0.0
20100829 22:05	12.4	12.4	12.4	75	8.1	6	10	225	0.0	1012.4	0	0.000	0.0
20100829 22:10	12.4	12.4	12.4	74	7.9	5	10	202	0.0	1012.4	0	0.000	0.0
20100829 22:15	12.5	12.5	12.5	74	8.0	5	8	225	0.0	1012.2	0	0.000	0.0
20100829 22:20	12.5	12.5	12.5	74	8.0	3	8	225	0.0	1012.2	0	0.000	0.0
20100829 22:25	12.6	12.6	12.6	74	8.0	5	8	225	0.0	1012.2	0	0.000	0.0
20100829 22:30	12.5	12.5	12.5	74	8.0	6	11	225	0.0	1012.2	0	0.000	0.0
20100829 22:35	12.6	12.6	12.6	74	8.0	10	18	225	0.0	1012.2	0	0.000	0.0
20100829 22:40	12.7	12.7	12.7	73	8.0	10	18	248	0.0	1012.3	0	0.000	0.0
20100829 22:45	12.8	12.8	12.8	73	8.1	11	19	248	0.0	1012.3	0	0.000	0.0
20100829 22:50	12.9	12.9	12.9	73	8.2	11	21	270	0.0	1012.3	0	0.000	0.0
20100829 22:55	12.9	12.9	12.9	74	8.4	10	18	270	0.2	1012.3	0	0.000	0.0
20100829 23:00	12.8	12.8	12.8	74	8.3	13	23	248	0.0	1012.4	0	0.025	0.0
20100829 23:05	12.7	12.7	12.7	75	8.4	10	21	248	0.0	1012.1	0	0.000	0.0
20100829 23:10	12.6	12.6	12.6	77	8.6	10	18	270	0.0	1012.1	0	0.000	0.0
20100829 23:15	12.4	12.4	12.4	77	8.5	11	23	292	0.0	1012.3	0	0.000	0.0
20100829 23:20	12.3	12.3	12.3	78	8.6	13	24	292	0.0	1012.3	0	0.000	0.0
20100829 23:25	12.2	12.2	12.2	80	8.9	10	23	315	0.0	1012.3	0	0.000	0.0
20100829 23:30	12.0	12.0	12.0	81	8.8	10	16	315	0.0	1012.3	0	0.000	0.0
20100829 23:35	11.8	11.8	11.8	82	8.8	8	11	315	0.0	1012.2	0	0.000	0.0
20100829 23:40	11.6	11.6	11.6	83	8.8	5	10	315	0.0	1012.2	0	0.000	0.0
20100829 23:45	11.5	11.5	11.5	83	8.7	5	8	315	0.0	1012.0	0	0.000	0.0
20100829 23:50	11.4	11.4	11.4	84	8.8	3	6	292	0.0	1012.0	0	0.000	0.0
20100829 23:55	11.3	11.3	11.3	84	8.7	2	6	292	0.0	1011.9	0	0.000	0.0
--------------------------------------------------------------------------------------------------------------------
Please note the license to use and transfer of this data:
http://creativecommons.org/licenses/by-nc-sa/3.0/deed.en

Bitte beachten sie die Lizenz zur Verwertung und Weitergabe der Daten:
http://creativecommons.org/licenses/by-nc-sa/3.0/deed.de



Please note the license to use and transfer of this data:
http://creativecommons.org/licenses/by-nc-sa/3.0/deed.en

Bitte beachten sie die Lizenz zur Verwertung und Weitergabe der Daten:
http://creativecommons.org/licenses/by-nc-sa/3.0/deed.de

zurück zur Übersicht der Archivdaten (Monats und Tagesdaten)

Cookies helfen bei der Bereitstellung von Inhalten. Durch die Nutzung dieser Seiten erklärst du dich damit einverstanden, dass Cookies auf deinem Rechner gespeichert werden. Weitere Information